Flight Track Log - Related Links

Times and Time Zones

All times are in EDT time to prevent confusion due to time zone crossing. See the SWA385 flight status page for this flight to view local times or setup timezone preferences in your user account.

Time Position Orientation Groundspeed Altitude Reporting Facility
EDT Latitude Longitude Course Direction KTS MPH feet Rate Location/Type
Fri 12:12:22 AM 38.6500 -121.5500 130° Southeast 201 231 4,200  Level Northern Cal TRACON
Fri 12:13:22 AM 38.6167 -121.4667 117° Southeast 269 310 7,200 3,525 Climbing Northern Cal TRACON
Fri 12:15:19 AM 38.5211 -121.2889 124° Southeast 342 394 14,600 2,629 Climbing Oakland Center
Fri 12:16:20 AM 38.4681 -121.1786 122° Southeast 364 419 15,000 2,016 Climbing Oakland Center
Fri 12:17:21 AM 38.4172 -121.0686 121° Southeast 367 422 18,700 3,443 Climbing Oakland Center
Fri 12:18:22 AM 38.3608 -120.9500 121° Southeast 382 440 22,000 3,197 Climbing Oakland Center
Fri 12:19:23 AM 38.3003 -120.8242 121° Southeast 407 468 25,200 2,951 Climbing Oakland Center
Fri 12:20:24 AM 38.2350 -120.6936 122° Southeast 433 498 28,000 2,705 Climbing Oakland Center
Fri 12:21:25 AM 38.1411 -120.5925 140° Southeast 441 507 30,700 1,475 Climbing Oakland Center
Fri 12:22:26 AM 38.0450 -120.4986 142° Southeast 436 502 31,000 148 Climbing Oakland Center
Fri 12:23:27 AM 37.9506 -120.4067 142° Southeast 430 495 31,000  Level Oakland Center
Fri 12:24:28 AM 37.8556 -120.3161 143° Southeast 427 491 31,000  Level Oakland Center
Fri 12:25:29 AM 37.7439 -120.2056 142° Southeast 426 490 31,000  Level Oakland Center
Fri 12:26:30 AM 37.6497 -120.1164 143° Southeast 422 486 31,000  Level Oakland Center
Fri 12:27:31 AM 37.5561 -120.0256 142° Southeast 424 488 31,000  Level Oakland Center
Fri 12:28:32 AM 37.4625 -119.9361 143° Southeast 421 484 31,000  Level Oakland Center
Fri 12:29:34 AM 37.3692 -119.8467 143° Southeast 421 484 31,000 683 Level Oakland Center
Fri 12:30:35 AM 37.2675 -119.7844 154° Southeast 421 484 32,400 1,869 Climbing Oakland Center
Fri 12:31:36 AM 37.1528 -119.7719 175° South 412 474 34,800 2,410 Climbing Oakland Center
Fri 12:32:37 AM 37.0411 -119.7544 173° South 406 467 37,300 2,164 Climbing Oakland Center
Fri 12:33:38 AM 36.9319 -119.7406 174° South 396 456 39,200 1,623 Climbing Oakland Center
Fri 12:34:39 AM 36.8222 -119.7264 174° South 396 456 40,600 885 Climbing Oakland Center
Fri 12:35:40 AM 36.7111 -119.7114 174° South 399 459 41,000 197 Climbing Oakland Center
Fri 12:36:41 AM 36.5772 -119.6944 174° South 402 463 41,000  Level Oakland Center
Fri 12:37:42 AM 36.4667 -119.6792 174° South 399 459 41,000  Level Oakland Center
Fri 12:38:43 AM 36.3567 -119.6636 174° South 398 458 41,000  Level Oakland Center
Fri 12:39:44 AM 36.2453 -119.6497 174° South 399 459 41,000  Level Oakland Center
Fri 12:40:45 AM 36.1331 -119.6344 174° South 402 463 41,000  Level Oakland Center
Fri 12:41:46 AM 36.0214 -119.6194 174° South 402 463 41,000  Level Oakland Center
Fri 12:42:47 AM 35.9100 -119.6161 179° South 401 461 41,000  Level Oakland Center
Fri 12:43:48 AM 35.7975 -119.6214 182° South 403 464 41,000  Level Oakland Center
Fri 12:44:50 AM 35.6844 -119.6244 181° South 404 465 41,000  Level Oakland Center
Fri 12:45:51 AM 35.5708 -119.6286 182° South 406 467 41,000  Level Oakland Center
Fri 12:46:52 AM 35.4589 -119.6328 182° South 403 464 41,000  Level Oakland Center
Fri 12:47:53 AM 35.3544 -119.5794 157° South 409 471 41,000  Level Oakland Center
Fri 12:48:23 AM 35.2950 -119.5378 150° Southeast 413 475 41,000  Level Los Angeles Center
Fri 12:49:24 AM 35.1944 -119.4675 150° Southeast 415 478 41,000  Level Los Angeles Center
Fri 12:50:26 AM 35.0928 -119.3961 150° Southeast 418 481 41,000  Level Los Angeles Center
Fri 12:51:27 AM 34.9911 -119.3253 150° Southeast 420 483 41,000 -780 Level Los Angeles Center
Fri 12:52:29 AM 34.9111 -119.2681 150° Southeast 419 482 39,400 -2,390 Descending Los Angeles Center
Fri 12:53:30 AM 34.7922 -119.1847 150° Southeast 412 474 36,100 -3,024 Descending Los Angeles Center
Fri 12:54:32 AM 34.6911 -119.1153 151° Southeast 412 474 33,200 -2,927 Descending Los Angeles Center
Fri 12:55:33 AM 34.5742 -119.0333 150° Southeast 406 467 30,100 -2,732 Descending Los Angeles Center
Fri 12:56:35 AM 34.4789 -118.9678 150° Southeast 398 458 27,600 -2,274 Descending Los Angeles Center
Fri 12:57:37 AM 34.3858 -118.9039 150° Southeast 387 445 25,400 -2,146 Descending Los Angeles Center
Fri 12:58:38 AM 34.2931 -118.8572 157° South 366 421 23,200 -2,146 Descending Los Angeles Center
Fri 12:59:40 AM 34.1983 -118.8231 163° South 355 409 21,000 -1,911 Descending Los Angeles Center
Fri 01:00:53 AM 34.1081 -118.7900 163° South 343 395 18,900 -2,178 Descending Los Angeles Center
Fri 01:01:55 AM 33.9881 -118.7461 163° South 336 387 16,100 -2,390 Descending Los Angeles Center
Fri 01:02:56 AM 33.8989 -118.7139 163° South 334 384 14,000 -933 Descending Los Angeles Center
Fri 01:04:10 AM 33.8069 -118.6806 163° South 328 377 14,000 -265 Level Los Angeles Center
Fri 01:05:12 AM 33.7022 -118.6431 163° South 331 381 13,400 -1,317 Descending Los Angeles Center
Fri 01:06:13 AM 33.6142 -118.6128 164° South 333 383 11,300 -1,756 Descending Los Angeles Center
Fri 01:07:15 AM 33.5603 -118.5397 132° Southeast 314 361 9,800 -1,561 Descending Los Angeles Center
Fri 01:08:16 AM 33.5400 -118.4453 104° East 302 348 8,100 -1,756 Descending Los Angeles Center
Fri 01:09:18 AM 33.5481 -118.3297 85° East 297 342 6,200 -1,512 Descending Los Angeles Center
Fri 01:10:19 AM 33.5581 -118.2372 83° East 290 334 5,000 -585 Descending Los Angeles Center
Fri 01:11:21 AM 33.5681 -118.1467 82° East 283 326 5,000  Level Los Angeles Center
Fri 01:12:22 AM 33.5803 -118.0667 80° East 264 304 5,000  Level Los Angeles Center
Fri 01:13:06 AM 33.6333 -118.0333 28° Northeast 226 260 5,000  Level Southern California TRACON
Fri 01:14:06 AM 33.6833 -117.9833 40° Northeast 226 260 5,000  Level Southern California TRACON
Fri 01:15:12 AM 33.7333 -117.9500 29° Northeast 211 243 5,000 -298 Level Southern California TRACON
Fri 01:16:07 AM 33.7833 -117.9167 29° Northeast 197 227 4,400 -545 Descending Southern California TRACON
Fri 01:17:13 AM 33.8167 -117.8833 40° Northeast 172 198 3,900 -667 Descending Southern California TRACON
Fri 01:18:13 AM 33.8333 -117.8333 68° East 151 174 3,000 -800 Descending Southern California TRACON
Fri 01:19:13 AM 33.8000 -117.8000 140° Southeast 141 162 2,300 -600 Descending Southern California TRACON
Fri 01:20:13 AM 33.7667 -117.8167 203° Southwest 144 166 1,800 -600 Descending Southern California TRACON
Fri 01:21:13 AM 33.7333 -117.8333 203° Southwest 125 144 1,100 -684 Descending Southern California TRACON
Fri 01:22:07 AM 33.7000 -117.8500 203° Southwest 122 140 500 -667 Descending Southern California TRACON

Login

Don't have an account? Register now (free) for customized features, flight alerts, and more!